createdAt,value
2018-07-22T00:04:36.536Z,40.97
2018-07-22T00:09:42.327Z,40.98
2018-07-22T00:14:45.931Z,40.92
2018-07-22T00:19:49.986Z,40.94
2018-07-22T00:24:53.805Z,40.92
2018-07-22T00:29:59.322Z,40.92
2018-07-22T00:35:04.494Z,40.90
2018-07-22T00:40:10.157Z,40.83
2018-07-22T00:45:14.557Z,40.82
2018-07-22T00:50:19.911Z,40.83
2018-07-22T00:55:24.320Z,40.82
2018-07-22T01:00:29.017Z,40.81
2018-07-22T01:05:34.714Z,40.81
2018-07-22T01:10:39.297Z,40.76
2018-07-22T01:15:42.836Z,40.78
2018-07-22T01:20:46.341Z,40.73
2018-07-22T01:25:50.457Z,40.81
2018-07-22T01:30:54.203Z,40.75
2018-07-22T01:35:58.030Z,40.73
2018-07-22T01:41:02.277Z,40.73
2018-07-22T01:46:05.797Z,40.72
2018-07-22T01:51:10.886Z,40.73
2018-07-22T01:56:14.414Z,40.71
2018-07-22T02:01:17.961Z,40.70
2018-07-22T02:06:22.800Z,40.75
2018-07-22T02:11:26.423Z,40.68
2018-07-22T02:16:30.145Z,40.72
2018-07-22T02:21:34.800Z,40.72
2018-07-22T02:26:38.357Z,40.71
2018-07-22T02:31:43.166Z,40.69
2018-07-22T02:36:47.013Z,40.66
2018-07-22T02:41:50.587Z,40.68
2018-07-22T02:46:54.077Z,40.66
2018-07-22T02:51:57.686Z,40.66
2018-07-22T02:57:01.314Z,40.65
2018-07-22T03:02:05.046Z,40.65
2018-07-22T03:07:08.573Z,40.65
2018-07-22T03:12:12.058Z,40.64
2018-07-22T03:17:15.706Z,40.63
2018-07-22T03:22:19.242Z,40.59
2018-07-22T03:27:22.811Z,40.53
2018-07-22T03:32:26.457Z,40.44
2018-07-22T03:37:30.018Z,40.48
2018-07-22T03:42:33.474Z,40.43
2018-07-22T03:47:37.288Z,40.42
2018-07-22T03:52:41.082Z,40.36
2018-07-22T03:57:44.754Z,40.40
2018-07-22T04:02:48.234Z,40.37
2018-07-22T04:07:51.901Z,40.34
2018-07-22T04:12:55.527Z,40.29
2018-07-22T04:17:59.282Z,40.33
2018-07-22T04:23:02.706Z,40.30
2018-07-22T04:28:06.173Z,40.32
2018-07-22T04:33:09.618Z,40.29
2018-07-22T04:38:13.109Z,40.29
2018-07-22T04:43:16.501Z,40.25
2018-07-22T04:48:20.111Z,40.26
2018-07-22T04:53:23.843Z,40.30
2018-07-22T04:58:27.396Z,40.31
2018-07-22T05:03:31.096Z,40.29
2018-07-22T05:08:34.668Z,40.24
2018-07-22T05:13:38.354Z,40.23
2018-07-22T05:18:42.023Z,40.25
2018-07-22T05:23:45.478Z,40.21
2018-07-22T05:28:49.153Z,40.21
2018-07-22T05:33:52.956Z,40.25
2018-07-22T05:38:56.553Z,40.22
2018-07-22T05:44:00.204Z,40.22
2018-07-22T05:49:04.105Z,40.22
2018-07-22T05:54:07.777Z,40.23
2018-07-22T05:59:11.472Z,40.22
2018-07-22T06:04:14.966Z,40.23
2018-07-22T06:09:18.429Z,40.25
2018-07-22T06:14:22.064Z,40.21
2018-07-22T06:19:25.702Z,40.19
2018-07-22T06:24:29.130Z,40.20
2018-07-22T06:29:32.614Z,40.25
2018-07-22T06:34:36.325Z,40.31
2018-07-22T06:39:40.295Z,40.29
2018-07-22T06:44:44.017Z,40.25
2018-07-22T06:49:47.548Z,40.22
2018-07-22T06:54:51.199Z,40.26
2018-07-22T06:59:54.673Z,40.24
2018-07-22T07:04:58.449Z,39.40
2018-07-22T07:10:02.095Z,38.92
2018-07-22T07:15:06.963Z,38.80
2018-07-22T07:20:10.374Z,38.77
2018-07-22T07:25:13.901Z,38.63
2018-07-22T07:30:17.437Z,38.86
2018-07-22T07:35:21.006Z,38.79
2018-07-22T07:40:24.790Z,38.82
2018-07-22T07:45:28.475Z,38.74
2018-07-22T07:50:31.958Z,38.50
2018-07-22T07:55:35.454Z,38.79
2018-07-22T08:00:39.417Z,38.92
2018-07-22T08:05:42.935Z,38.39
2018-07-22T08:10:46.597Z,38.18
2018-07-22T08:15:50.383Z,38.47
2018-07-22T08:20:53.961Z,38.63
2018-07-22T08:25:58.080Z,38.80
2018-07-22T08:31:01.612Z,38.99
2018-07-22T08:36:05.406Z,38.75
2018-07-22T08:41:09.006Z,38.57
2018-07-22T08:46:12.703Z,38.46
2018-07-22T08:51:16.223Z,38.31
2018-07-22T08:56:19.657Z,38.34
2018-07-22T09:01:23.199Z,38.37
2018-07-22T09:06:27.369Z,38.37
2018-07-22T09:11:31.000Z,38.75
2018-07-22T09:16:34.599Z,39.02
2018-07-22T09:21:38.316Z,39.12
2018-07-22T09:26:41.852Z,39.20
2018-07-22T09:31:45.365Z,39.24
2018-07-22T09:36:48.880Z,39.26
2018-07-22T09:41:52.363Z,39.21
2018-07-22T09:46:55.959Z,39.30
2018-07-22T09:51:59.838Z,39.32
2018-07-22T09:57:03.434Z,39.31
2018-07-22T10:02:06.897Z,39.43
2018-07-22T10:07:10.977Z,39.53
2018-07-22T10:12:14.510Z,39.52
2018-07-22T10:17:17.998Z,39.53
2018-07-22T10:22:21.593Z,39.62
2018-07-22T10:27:25.350Z,39.61
2018-07-22T10:32:28.861Z,39.57
2018-07-22T10:37:33.309Z,39.28
2018-07-22T10:42:36.930Z,39.19
2018-07-22T10:47:40.943Z,39.22
2018-07-22T10:52:50.657Z,39.10
2018-07-22T10:57:54.451Z,39.21
2018-07-22T11:02:57.990Z,39.27
2018-07-22T11:08:01.722Z,39.38
2018-07-22T11:13:05.184Z,39.32
2018-07-22T11:18:08.821Z,39.37
2018-07-22T11:23:12.540Z,39.45
2018-07-22T11:28:16.057Z,39.41
2018-07-22T11:33:19.529Z,39.42
2018-07-22T11:38:23.010Z,39.43
2018-07-22T11:43:26.526Z,39.45
2018-07-22T11:48:30.023Z,39.48
2018-07-22T11:53:33.484Z,39.49
2018-07-22T11:58:37.001Z,39.56
2018-07-22T12:03:41.382Z,39.49
2018-07-22T12:08:45.347Z,39.50
2018-07-22T12:13:48.881Z,39.48
2018-07-22T12:18:52.420Z,39.50
2018-07-22T12:23:56.349Z,39.57
2018-07-22T12:28:59.938Z,39.54
2018-07-22T12:34:03.448Z,39.62
2018-07-22T12:39:10.085Z,39.70
2018-07-22T12:44:13.690Z,39.69
2018-07-22T12:49:17.211Z,39.66
2018-07-22T12:54:20.690Z,39.65
2018-07-22T12:59:24.630Z,39.59
2018-07-22T13:04:28.375Z,39.68
2018-07-22T13:09:31.899Z,39.72
2018-07-22T13:14:35.717Z,39.76
2018-07-22T13:19:39.197Z,39.67
2018-07-22T13:24:42.845Z,39.67
2018-07-22T13:29:46.369Z,39.78
2018-07-22T13:34:49.984Z,39.87
2018-07-22T13:39:53.511Z,39.90
2018-07-22T13:44:57.318Z,39.86
2018-07-22T13:50:00.826Z,39.87
2018-07-22T13:55:04.447Z,39.94
2018-07-22T14:00:08.085Z,39.93
2018-07-22T14:05:11.566Z,39.94
2018-07-22T14:10:15.101Z,39.95
2018-07-22T14:15:18.824Z,39.99
2018-07-22T14:20:22.706Z,39.97
2018-07-22T14:25:26.269Z,39.87
2018-07-22T14:30:29.726Z,40.01
2018-07-22T14:35:33.189Z,40.02
2018-07-22T14:40:36.891Z,39.89
2018-07-22T14:45:40.623Z,40.01
2018-07-22T14:50:44.862Z,40.01
2018-07-22T14:55:48.979Z,40.00
2018-07-22T15:00:52.818Z,40.04
2018-07-22T15:05:56.438Z,40.07
2018-07-22T15:11:00.317Z,40.02
2018-07-22T15:16:04.295Z,40.00
2018-07-22T15:21:08.103Z,39.98
2018-07-22T15:26:11.773Z,40.16
2018-07-22T15:31:15.447Z,40.20
2018-07-22T15:36:19.493Z,40.19
2018-07-22T15:41:23.368Z,40.19
2018-07-22T15:46:26.902Z,40.23
2018-07-22T15:51:30.578Z,40.28
2018-07-22T15:56:34.138Z,40.26
2018-07-22T16:01:38.428Z,40.13
2018-07-22T16:06:42.701Z,40.00
2018-07-22T16:11:46.666Z,39.87
2018-07-22T16:16:50.333Z,39.78
2018-07-22T16:21:53.979Z,39.62
2018-07-22T16:26:57.560Z,39.81
2018-07-22T16:32:01.145Z,39.96
2018-07-22T16:37:04.645Z,40.08
2018-07-22T16:42:08.218Z,40.06
2018-07-22T16:47:11.964Z,40.11
2018-07-22T16:52:15.798Z,40.10
2018-07-22T16:57:19.257Z,40.06
2018-07-22T17:02:23.198Z,39.97
2018-07-22T17:07:27.025Z,39.75
2018-07-22T17:12:30.498Z,39.63
2018-07-22T17:17:34.297Z,39.69
2018-07-22T17:22:37.736Z,39.67
2018-07-22T17:27:42.948Z,39.63
2018-07-22T17:32:46.463Z,39.52
2018-07-22T17:37:51.077Z,39.43
2018-07-22T17:42:54.733Z,39.35
2018-07-22T17:47:58.553Z,39.39
2018-07-22T17:53:03.485Z,39.09
2018-07-22T17:58:06.964Z,39.15
2018-07-22T18:03:30.927Z,39.03
2018-07-22T18:08:35.660Z,39.16
2018-07-22T18:13:39.171Z,39.30
2018-07-22T18:18:42.614Z,39.48
2018-07-22T18:23:46.208Z,39.58
2018-07-22T18:28:49.861Z,39.35
2018-07-22T18:33:53.545Z,39.36
2018-07-22T18:38:57.994Z,39.37
2018-07-22T18:44:02.629Z,39.30
2018-07-22T18:49:07.814Z,39.35
2018-07-22T18:54:12.520Z,39.37
2018-07-22T18:59:16.393Z,39.39
2018-07-22T19:04:20.024Z,39.41
2018-07-22T19:09:25.523Z,39.55
2018-07-22T19:14:29.019Z,39.54
2018-07-22T19:19:33.859Z,39.62
2018-07-22T19:24:39.216Z,39.49
2018-07-22T19:29:44.090Z,39.49
2018-07-22T19:34:47.709Z,39.55
2018-07-22T19:39:52.465Z,39.58
2018-07-22T19:44:56.083Z,39.63
2018-07-22T19:50:02.817Z,39.61
2018-07-22T19:55:07.403Z,39.60
2018-07-22T20:00:11.536Z,39.61
2018-07-22T20:05:15.881Z,39.60
2018-07-22T20:10:19.458Z,39.58
2018-07-22T20:15:23.024Z,39.58
2018-07-22T20:20:27.806Z,39.61
2018-07-22T20:25:31.455Z,39.62
2018-07-22T20:30:36.096Z,39.58
2018-07-22T20:35:39.540Z,39.60
2018-07-22T20:40:43.140Z,39.66
2018-07-22T20:45:46.638Z,39.53
2018-07-22T20:50:51.796Z,39.57
2018-07-22T20:55:55.284Z,39.60
2018-07-22T21:00:59.221Z,39.66
2018-07-22T21:06:02.647Z,39.68
2018-07-22T21:11:06.121Z,39.69
2018-07-22T21:16:10.193Z,39.44
2018-07-22T21:21:14.380Z,39.48
2018-07-22T21:26:19.582Z,39.41
2018-07-22T21:31:23.211Z,39.41
2018-07-22T21:36:27.340Z,39.39
2018-07-22T21:41:31.720Z,39.42
2018-07-22T21:46:37.661Z,39.43
2018-07-22T21:51:41.610Z,39.46
2018-07-22T21:56:45.078Z,39.49
2018-07-22T22:01:48.535Z,39.48
2018-07-22T22:06:52.626Z,39.51
2018-07-22T22:11:56.335Z,39.52
2018-07-22T22:17:00.045Z,39.54
2018-07-22T22:22:04.298Z,39.53
2018-07-22T22:27:08.222Z,39.52
2018-07-22T22:32:12.544Z,39.50
2018-07-22T22:37:16.518Z,39.52
2018-07-22T22:42:20.101Z,39.52
2018-07-22T22:47:24.026Z,39.49
2018-07-22T22:52:27.809Z,39.51
2018-07-22T22:57:31.803Z,39.51
2018-07-22T23:02:37.026Z,39.48
2018-07-22T23:07:40.681Z,39.48
2018-07-22T23:12:44.824Z,39.46
2018-07-22T23:17:49.037Z,39.45
2018-07-22T23:22:52.862Z,39.47
2018-07-22T23:27:57.654Z,39.42
2018-07-22T23:33:01.124Z,39.41
2018-07-22T23:38:07.591Z,39.41
2018-07-22T23:43:11.911Z,39.40
2018-07-22T23:48:15.750Z,39.40
2018-07-22T23:53:19.967Z,39.41
2018-07-22T23:58:23.946Z,39.38
